AUA29D LOWW-EDDN
Flight info
| Callsign | AUA29D |
|---|---|
| Flight time | 0h 45m |
| Altitude | 30000 |
| Route | LUGEM2B/16 LUGEM DCT SUBEN T161 AKINI Z109 UPALA UPALA1V |
| Aircraft | A320/M-SDE3FGHIRWY/LB1 |
Departure
| Time | 2026-05-04 18:00 |
|---|---|
| Airport | Vienna International Airport (LOWW) |
Arrival
| Time | 2026-05-04 18:46 |
|---|---|
| Airport | Nuremberg Airport (EDDN) |
| Time | Latitude | Longitude | Altitude | Speed | Heading |
|---|---|---|---|---|---|
| 2026-05-04 17:37 | 48.11827 | 16.56986 | 609 ft | 0 kts | 206° |
| 2026-05-04 17:51 | 48.11834 | 16.56991 | 624 ft | 4 kts | 205° |
| 2026-05-04 17:51 | 48.11867 | 16.57011 | 625 ft | 4 kts | 193° |
| 2026-05-04 17:51 | 48.11891 | 16.57013 | 624 ft | 4 kts | 152° |
| 2026-05-04 17:52 | 48.11900 | 16.57003 | 625 ft | 0 kts | 116° |
| 2026-05-04 17:54 | 48.11900 | 16.57004 | 610 ft | 1 kts | 116° |
| 2026-05-04 17:54 | 48.11891 | 16.57031 | 615 ft | 5 kts | 116° |
| 2026-05-04 17:55 | 48.11874 | 16.57084 | 610 ft | 8 kts | 116° |
| 2026-05-04 17:55 | 48.11855 | 16.57153 | 616 ft | 12 kts | 103° |
| 2026-05-04 17:55 | 48.11833 | 16.57282 | 610 ft | 14 kts | 117° |
| 2026-05-04 17:55 | 48.11817 | 16.57359 | 617 ft | 0 kts | 56° |
| 2026-05-04 17:56 | 48.11822 | 16.57357 | 612 ft | 1 kts | 1° |
| 2026-05-04 17:56 | 48.11849 | 16.57342 | 613 ft | 9 kts | 338° |
| 2026-05-04 17:56 | 48.11911 | 16.57304 | 618 ft | 9 kts | 340° |
| 2026-05-04 17:56 | 48.11972 | 16.57295 | 614 ft | 10 kts | 21° |
| 2026-05-04 17:57 | 48.12002 | 16.57392 | 611 ft | 11 kts | 73° |
| 2026-05-04 17:57 | 48.12013 | 16.57481 | 610 ft | 1 kts | 95° |
| 2026-05-04 17:57 | 48.12013 | 16.57483 | 610 ft | 0 kts | 96° |
| 2026-05-04 17:58 | 48.12008 | 16.57515 | 610 ft | 7 kts | 102° |
| 2026-05-04 17:58 | 48.11999 | 16.57570 | 615 ft | 0 kts | 104° |
| 2026-05-04 17:58 | 48.11998 | 16.57578 | 613 ft | 1 kts | 104° |
| 2026-05-04 17:58 | 48.11994 | 16.57601 | 610 ft | 4 kts | 104° |
| 2026-05-04 17:59 | 48.11982 | 16.57675 | 610 ft | 11 kts | 104° |
| 2026-05-04 17:59 | 48.11963 | 16.57800 | 610 ft | 9 kts | 96° |
| 2026-05-04 17:59 | 48.11601 | 16.57977 | 621 ft | 82 kts | 164° |
| 2026-05-04 18:00 | 48.10861 | 16.58290 | 622 ft | 139 kts | 164° |
| 2026-05-04 18:00 | 48.09822 | 16.58719 | 1020 ft | 154 kts | 164° |
| 2026-05-04 18:00 | 48.08790 | 16.59141 | 1776 ft | 155 kts | 165° |
| 2026-05-04 18:00 | 48.07707 | 16.59580 | 2291 ft | 172 kts | 167° |
| 2026-05-04 18:01 | 48.06472 | 16.60040 | 2708 ft | 192 kts | 174° |
| 2026-05-04 18:01 | 48.05108 | 16.59614 | 3063 ft | 220 kts | 212° |
| 2026-05-04 18:01 | 48.03914 | 16.57995 | 3633 ft | 241 kts | 226° |
| 2026-05-04 18:02 | 48.02399 | 16.53482 | 5395 ft | 265 kts | 266° |
| 2026-05-04 18:02 | 48.02801 | 16.50714 | 6177 ft | 278 kts | 286° |
| 2026-05-04 18:02 | 48.03337 | 16.47984 | 7278 ft | 273 kts | 280° |
| 2026-05-04 18:02 | 48.03701 | 16.45233 | 8203 ft | 274 kts | 276° |
| 2026-05-04 18:03 | 48.04005 | 16.42393 | 9091 ft | 279 kts | 276° |
| 2026-05-04 18:03 | 48.04308 | 16.39504 | 9945 ft | 284 kts | 276° |
| 2026-05-04 18:03 | 48.04640 | 16.36513 | 10444 ft | 303 kts | 277° |
| 2026-05-04 18:03 | 48.05025 | 16.33292 | 10742 ft | 326 kts | 278° |
| 2026-05-04 18:04 | 48.05458 | 16.29896 | 11309 ft | 337 kts | 278° |
| 2026-05-04 18:04 | 48.05916 | 16.26437 | 12082 ft | 342 kts | 279° |
| 2026-05-04 18:04 | 48.06871 | 16.19380 | 13645 ft | 350 kts | 279° |
| 2026-05-04 18:05 | 48.07347 | 16.15843 | 14326 ft | 353 kts | 279° |
| 2026-05-04 18:05 | 48.07828 | 16.12224 | 15016 ft | 356 kts | 278° |
| 2026-05-04 18:05 | 48.08310 | 16.08574 | 15721 ft | 359 kts | 279° |
| 2026-05-04 18:05 | 48.08795 | 16.04894 | 16429 ft | 362 kts | 279° |
| 2026-05-04 18:06 | 48.09783 | 15.97442 | 17824 ft | 369 kts | 279° |
| 2026-05-04 18:06 | 48.10307 | 15.93667 | 18465 ft | 372 kts | 279° |
| 2026-05-04 18:06 | 48.10845 | 15.89866 | 19043 ft | 376 kts | 280° |
| 2026-05-04 18:07 | 48.11393 | 15.86027 | 19658 ft | 378 kts | 280° |
| 2026-05-04 18:07 | 48.11941 | 15.82162 | 20267 ft | 381 kts | 280° |
| 2026-05-04 18:07 | 48.12489 | 15.78267 | 20866 ft | 384 kts | 280° |
| 2026-05-04 18:07 | 48.13039 | 15.74338 | 21480 ft | 387 kts | 281° |
| 2026-05-04 18:08 | 48.13583 | 15.70426 | 22034 ft | 391 kts | 281° |
| 2026-05-04 18:08 | 48.14134 | 15.66423 | 22601 ft | 394 kts | 281° |
| 2026-05-04 18:08 | 48.14686 | 15.62396 | 23184 ft | 396 kts | 281° |
| 2026-05-04 18:08 | 48.15241 | 15.58337 | 23703 ft | 399 kts | 281° |
| 2026-05-04 18:09 | 48.16352 | 15.50159 | 24547 ft | 405 kts | 281° |
| 2026-05-04 18:09 | 48.17477 | 15.41814 | 25361 ft | 411 kts | 281° |
| 2026-05-04 18:10 | 48.18048 | 15.37606 | 25772 ft | 413 kts | 281° |
| 2026-05-04 18:10 | 48.18625 | 15.33370 | 26177 ft | 416 kts | 281° |
| 2026-05-04 18:10 | 48.19194 | 15.29171 | 26581 ft | 418 kts | 281° |
| 2026-05-04 18:10 | 48.19770 | 15.24891 | 26982 ft | 420 kts | 281° |
| 2026-05-04 18:11 | 48.20344 | 15.20584 | 27371 ft | 423 kts | 281° |
| 2026-05-04 18:11 | 48.20917 | 15.16252 | 27771 ft | 425 kts | 281° |
| 2026-05-04 18:11 | 48.21492 | 15.11894 | 28141 ft | 427 kts | 281° |
| 2026-05-04 18:11 | 48.22069 | 15.07528 | 28541 ft | 428 kts | 281° |
| 2026-05-04 18:12 | 48.22652 | 15.03139 | 28913 ft | 430 kts | 281° |
| 2026-05-04 18:12 | 48.23237 | 14.98730 | 29261 ft | 432 kts | 281° |
| 2026-05-04 18:12 | 48.23820 | 14.94306 | 29603 ft | 434 kts | 281° |
| 2026-05-04 18:12 | 48.24403 | 14.89856 | 29853 ft | 436 kts | 280° |
| 2026-05-04 18:13 | 48.24970 | 14.85495 | 29903 ft | 425 kts | 280° |
| 2026-05-04 18:13 | 48.25529 | 14.81176 | 29903 ft | 419 kts | 280° |
| 2026-05-04 18:14 | 48.27179 | 14.68376 | 29900 ft | 417 kts | 280° |
| 2026-05-04 18:14 | 48.28273 | 14.59820 | 29898 ft | 417 kts | 280° |
| 2026-05-04 18:15 | 48.30442 | 14.42697 | 29889 ft | 417 kts | 280° |
| 2026-05-04 18:16 | 48.31521 | 14.34147 | 29885 ft | 417 kts | 279° |
| 2026-05-04 18:16 | 48.32582 | 14.25651 | 29893 ft | 416 kts | 279° |
| 2026-05-04 18:17 | 48.34171 | 14.12828 | 29888 ft | 416 kts | 279° |
| 2026-05-04 18:18 | 48.35748 | 14.00003 | 29896 ft | 416 kts | 279° |
| 2026-05-04 18:18 | 48.36784 | 13.91456 | 29894 ft | 416 kts | 279° |
| 2026-05-04 18:19 | 48.38327 | 13.78674 | 29885 ft | 416 kts | 278° |
| 2026-05-04 18:19 | 48.39354 | 13.70118 | 29897 ft | 416 kts | 278° |
| 2026-05-04 18:20 | 48.40370 | 13.61552 | 29887 ft | 416 kts | 278° |
| 2026-05-04 18:20 | 48.41379 | 13.52979 | 29882 ft | 416 kts | 278° |
| 2026-05-04 18:21 | 48.42384 | 13.44412 | 29891 ft | 416 kts | 278° |
| 2026-05-04 18:21 | 48.43387 | 13.35835 | 29895 ft | 416 kts | 279° |
| 2026-05-04 18:22 | 48.45235 | 13.27622 | 29891 ft | 419 kts | 289° |
| 2026-05-04 18:22 | 48.47621 | 13.19579 | 29905 ft | 429 kts | 298° |
| 2026-05-04 18:23 | 48.50756 | 13.11698 | 29746 ft | 445 kts | 298° |
| 2026-05-04 18:23 | 48.52348 | 13.07694 | 29380 ft | 446 kts | 298° |
| 2026-05-04 18:23 | 48.53952 | 13.03649 | 29112 ft | 450 kts | 298° |
| 2026-05-04 18:24 | 48.55559 | 12.99578 | 28836 ft | 452 kts | 298° |
| 2026-05-04 18:24 | 48.57163 | 12.95493 | 28443 ft | 453 kts | 298° |
| 2026-05-04 18:24 | 48.58752 | 12.91389 | 28054 ft | 452 kts | 298° |
| 2026-05-04 18:24 | 48.60327 | 12.87277 | 27655 ft | 452 kts | 297° |
| 2026-05-04 18:25 | 48.61876 | 12.83209 | 27272 ft | 453 kts | 297° |
| 2026-05-04 18:25 | 48.63443 | 12.79096 | 26880 ft | 447 kts | 298° |
| 2026-05-04 18:25 | 48.64974 | 12.75080 | 26498 ft | 436 kts | 298° |
| 2026-05-04 18:25 | 48.66474 | 12.71140 | 26122 ft | 430 kts | 298° |
| 2026-05-04 18:26 | 48.67962 | 12.67224 | 25753 ft | 427 kts | 298° |
| 2026-05-04 18:26 | 48.69435 | 12.63341 | 25387 ft | 425 kts | 298° |
| 2026-05-04 18:26 | 48.70900 | 12.59471 | 25039 ft | 422 kts | 298° |
| 2026-05-04 18:26 | 48.72355 | 12.55622 | 24678 ft | 420 kts | 298° |
| 2026-05-04 18:27 | 48.73805 | 12.51789 | 24319 ft | 418 kts | 298° |
| 2026-05-04 18:27 | 48.75245 | 12.47976 | 23968 ft | 416 kts | 298° |
| 2026-05-04 18:27 | 48.76677 | 12.44177 | 23647 ft | 414 kts | 298° |
| 2026-05-04 18:27 | 48.78081 | 12.40451 | 23292 ft | 412 kts | 298° |
| 2026-05-04 18:28 | 48.79499 | 12.36690 | 22909 ft | 410 kts | 298° |
| 2026-05-04 18:28 | 48.80908 | 12.32944 | 22533 ft | 408 kts | 297° |
| 2026-05-04 18:28 | 48.82309 | 12.29208 | 22174 ft | 407 kts | 297° |
| 2026-05-04 18:28 | 48.83706 | 12.25474 | 21807 ft | 406 kts | 297° |
| 2026-05-04 18:29 | 48.85096 | 12.21757 | 21449 ft | 404 kts | 297° |
| 2026-05-04 18:29 | 48.86479 | 12.18052 | 21054 ft | 402 kts | 297° |
| 2026-05-04 18:29 | 48.87850 | 12.14361 | 20688 ft | 400 kts | 297° |
| 2026-05-04 18:29 | 48.89206 | 12.10692 | 20320 ft | 397 kts | 297° |
| 2026-05-04 18:30 | 48.91880 | 12.03456 | 19590 ft | 393 kts | 297° |
| 2026-05-04 18:30 | 48.93214 | 11.99841 | 19236 ft | 391 kts | 297° |
| 2026-05-04 18:30 | 48.94542 | 11.96242 | 18883 ft | 389 kts | 297° |
| 2026-05-04 18:31 | 48.95861 | 11.92661 | 18535 ft | 387 kts | 297° |
| 2026-05-04 18:31 | 48.97172 | 11.89094 | 18185 ft | 385 kts | 296° |
| 2026-05-04 18:31 | 48.98474 | 11.85543 | 17788 ft | 383 kts | 296° |
| 2026-05-04 18:31 | 48.99770 | 11.82005 | 17388 ft | 382 kts | 296° |
| 2026-05-04 18:32 | 49.01057 | 11.78485 | 16993 ft | 380 kts | 296° |
| 2026-05-04 18:32 | 49.02338 | 11.74978 | 16608 ft | 378 kts | 296° |
| 2026-05-04 18:32 | 49.03593 | 11.71548 | 16234 ft | 372 kts | 296° |
| 2026-05-04 18:32 | 49.04834 | 11.68154 | 15967 ft | 362 kts | 296° |
| 2026-05-04 18:33 | 49.06041 | 11.64847 | 15716 ft | 352 kts | 296° |
| 2026-05-04 18:33 | 49.07215 | 11.61618 | 15467 ft | 344 kts | 296° |
| 2026-05-04 18:33 | 49.08355 | 11.58479 | 15219 ft | 331 kts | 295° |
| 2026-05-04 18:33 | 49.09447 | 11.55469 | 14974 ft | 318 kts | 295° |
| 2026-05-04 18:34 | 49.10508 | 11.52543 | 14744 ft | 313 kts | 295° |
| 2026-05-04 18:34 | 49.11548 | 11.49664 | 14297 ft | 315 kts | 295° |
| 2026-05-04 18:34 | 49.12598 | 11.46757 | 13816 ft | 311 kts | 295° |
| 2026-05-04 18:34 | 49.13643 | 11.43858 | 13310 ft | 313 kts | 295° |
| 2026-05-04 18:35 | 49.14679 | 11.40977 | 12777 ft | 307 kts | 295° |
| 2026-05-04 18:35 | 49.15699 | 11.38145 | 12259 ft | 302 kts | 295° |
| 2026-05-04 18:35 | 49.16707 | 11.35348 | 11753 ft | 299 kts | 295° |
| 2026-05-04 18:35 | 49.17827 | 11.32678 | 11254 ft | 300 kts | 309° |
| 2026-05-04 18:36 | 49.19479 | 11.30725 | 10756 ft | 304 kts | 331° |
| 2026-05-04 18:36 | 49.21518 | 11.29891 | 10269 ft | 306 kts | 355° |
| 2026-05-04 18:36 | 49.23612 | 11.30362 | 9787 ft | 306 kts | 20° |
| 2026-05-04 18:36 | 49.25404 | 11.32048 | 9270 ft | 303 kts | 45° |
| 2026-05-04 18:37 | 49.26602 | 11.34579 | 8753 ft | 296 kts | 68° |
| 2026-05-04 18:37 | 49.27097 | 11.37586 | 8247 ft | 289 kts | 87° |
| 2026-05-04 18:37 | 49.27411 | 11.40608 | 7744 ft | 288 kts | 72° |
| 2026-05-04 18:37 | 49.28438 | 11.43201 | 7251 ft | 287 kts | 45° |
| 2026-05-04 18:38 | 49.30100 | 11.44811 | 6770 ft | 283 kts | 20° |
| 2026-05-04 18:38 | 49.31977 | 11.45658 | 6192 ft | 280 kts | 15° |
| 2026-05-04 18:38 | 49.33861 | 11.46377 | 5658 ft | 278 kts | 14° |
| 2026-05-04 18:38 | 49.35708 | 11.47068 | 5503 ft | 266 kts | 14° |
| 2026-05-04 18:39 | 49.37425 | 11.47704 | 5504 ft | 244 kts | 14° |
| 2026-05-04 18:39 | 49.38998 | 11.48282 | 5507 ft | 229 kts | 14° |
| 2026-05-04 18:39 | 49.40561 | 11.48356 | 5496 ft | 227 kts | 345° |
| 2026-05-04 18:39 | 49.41924 | 11.47221 | 5221 ft | 224 kts | 320° |
| 2026-05-04 18:40 | 49.43035 | 11.45613 | 5077 ft | 215 kts | 315° |
| 2026-05-04 18:40 | 49.44061 | 11.44012 | 4938 ft | 206 kts | 314° |
| 2026-05-04 18:40 | 49.45051 | 11.42448 | 4718 ft | 202 kts | 315° |
| 2026-05-04 18:40 | 49.46024 | 11.40892 | 4441 ft | 201 kts | 312° |
| 2026-05-04 18:41 | 49.46713 | 11.39052 | 4161 ft | 200 kts | 286° |
| 2026-05-04 18:41 | 49.46946 | 11.36987 | 4048 ft | 189 kts | 279° |
| 2026-05-04 18:41 | 49.47140 | 11.35093 | 3986 ft | 173 kts | 280° |
| 2026-05-04 18:41 | 49.47319 | 11.33338 | 3959 ft | 162 kts | 280° |
| 2026-05-04 18:42 | 49.47488 | 11.31666 | 3817 ft | 156 kts | 280° |
| 2026-05-04 18:42 | 49.47654 | 11.30026 | 3647 ft | 154 kts | 280° |
| 2026-05-04 18:42 | 49.47817 | 11.28403 | 3459 ft | 153 kts | 280° |
| 2026-05-04 18:42 | 49.47977 | 11.26791 | 3265 ft | 153 kts | 280° |
| 2026-05-04 18:43 | 49.48139 | 11.25182 | 3082 ft | 153 kts | 280° |
| 2026-05-04 18:43 | 49.48298 | 11.23568 | 2853 ft | 151 kts | 281° |
| 2026-05-04 18:43 | 49.48456 | 11.21975 | 2653 ft | 151 kts | 281° |
| 2026-05-04 18:43 | 49.48618 | 11.20399 | 2445 ft | 148 kts | 282° |
| 2026-05-04 18:44 | 49.48771 | 11.18857 | 2255 ft | 144 kts | 281° |
| 2026-05-04 18:44 | 49.48873 | 11.17852 | 2129 ft | 144 kts | 282° |
| 2026-05-04 18:44 | 49.49075 | 11.15832 | 1871 ft | 143 kts | 281° |
| 2026-05-04 18:44 | 49.49223 | 11.14324 | 1710 ft | 143 kts | 281° |
| 2026-05-04 18:45 | 49.49371 | 11.12810 | 1507 ft | 144 kts | 280° |
| 2026-05-04 18:45 | 49.49522 | 11.11304 | 1317 ft | 142 kts | 281° |
| 2026-05-04 18:45 | 49.49668 | 11.09811 | 1119 ft | 140 kts | 280° |
| 2026-05-04 18:45 | 49.49815 | 11.08430 | 1036 ft | 115 kts | 277° |
| 2026-05-04 18:46 | 49.49907 | 11.07455 | 1033 ft | 74 kts | 279° |
| 2026-05-04 18:46 | 49.49968 | 11.06840 | 1023 ft | 46 kts | 279° |
| 2026-05-04 18:46 | 49.49986 | 11.06525 | 1024 ft | 18 kts | 245° |
| 2026-05-04 18:46 | 49.49899 | 11.06486 | 1022 ft | 7 kts | 157° |
| 2026-05-04 18:47 | 49.49853 | 11.06515 | 1023 ft | 6 kts | 158° |
| 2026-05-04 18:47 | 49.49846 | 11.06519 | 1023 ft | 1 kts | 158° |
| 2026-05-04 18:47 | 49.49840 | 11.06523 | 1023 ft | 1 kts | 158° |
| 2026-05-04 18:47 | 49.49826 | 11.06533 | 1023 ft | 6 kts | 152° |
| 2026-05-04 18:48 | 49.49791 | 11.06651 | 1022 ft | 19 kts | 97° |
| 2026-05-04 18:48 | 49.49769 | 11.06884 | 1023 ft | 24 kts | 99° |
| 2026-05-04 18:48 | 49.49744 | 11.07135 | 1023 ft | 23 kts | 99° |
| 2026-05-04 18:48 | 49.49720 | 11.07374 | 1029 ft | 23 kts | 98° |
| 2026-05-04 18:49 | 49.49696 | 11.07621 | 1034 ft | 22 kts | 99° |
| 2026-05-04 18:49 | 49.49663 | 11.07764 | 1031 ft | 9 kts | 150° |
| 2026-05-04 18:49 | 49.49600 | 11.07772 | 1030 ft | 9 kts | 171° |
| 2026-05-04 18:49 | 49.49578 | 11.07841 | 1030 ft | 6 kts | 112° |
| 2026-05-04 18:50 | 49.49543 | 11.07857 | 1029 ft | 6 kts | 178° |
| 2026-05-04 18:50 | 49.49514 | 11.07851 | 1028 ft | 0 kts | 189° |